createdAt,value
2023-01-09T00:01:19.492Z,16.90
2023-01-09T00:03:47.101Z,17.30
2023-01-09T00:06:14.500Z,16.77
2023-01-09T00:08:41.216Z,15.88
2023-01-09T00:11:08.580Z,16.77
2023-01-09T00:13:35.926Z,17.73
2023-01-09T00:16:04.944Z,16.13
2023-01-09T00:18:34.084Z,17.42
2023-01-09T00:21:02.635Z,15.63
2023-01-09T00:23:29.502Z,15.68
2023-01-09T00:26:11.499Z,13.02
2023-01-09T00:28:38.902Z,14.98
2023-01-09T00:31:07.165Z,13.48
2023-01-09T00:33:41.521Z,12.35
2023-01-09T00:36:09.087Z,12.02
2023-01-09T00:38:37.524Z,12.00
2023-01-09T00:41:07.706Z,12.25
2023-01-09T00:43:42.104Z,12.73
2023-01-09T00:46:09.873Z,11.05
2023-01-09T00:48:40.373Z,12.73
2023-01-09T00:51:08.461Z,11.10
2023-01-09T00:53:39.916Z,13.15
2023-01-09T00:56:10.151Z,15.82
2023-01-09T00:58:37.804Z,16.15
2023-01-09T01:01:04.849Z,15.13
2023-01-09T01:03:31.808Z,15.63
2023-01-09T01:06:17.279Z,15.63
2023-01-09T01:08:46.035Z,15.27
2023-01-09T01:11:13.240Z,15.88
2023-01-09T01:13:41.564Z,13.77
2023-01-09T01:16:11.815Z,14.75
2023-01-09T01:18:39.209Z,16.75
2023-01-09T01:21:08.318Z,14.63
2023-01-09T01:23:36.322Z,13.98
2023-01-09T01:26:21.178Z,14.77
2023-01-09T01:28:47.951Z,16.02
2023-01-09T01:31:19.429Z,15.18
2023-01-09T01:33:46.382Z,14.30
2023-01-09T01:36:14.924Z,13.35
2023-01-09T01:38:41.900Z,13.88
2023-01-09T01:41:08.715Z,13.10
2023-01-09T01:43:56.063Z,15.07
2023-01-09T01:46:23.067Z,13.02
2023-01-09T01:48:59.930Z,14.38
2023-01-09T01:51:31.036Z,12.38
2023-01-09T01:54:03.048Z,14.30
2023-01-09T01:56:45.761Z,14.05
2023-01-09T01:59:41.274Z,14.95
2023-01-09T02:02:09.967Z,13.27
2023-01-09T02:04:40.506Z,14.05
2023-01-09T02:07:10.352Z,14.75
2023-01-09T02:09:40.477Z,14.77
2023-01-09T02:12:19.338Z,13.55
2023-01-09T02:14:48.519Z,13.45
2023-01-09T02:17:30.667Z,14.82
2023-01-09T02:20:25.337Z,13.82
2023-01-09T02:23:33.412Z,13.45
2023-01-09T02:26:21.732Z,14.05
2023-01-09T02:29:02.778Z,13.23
2023-01-09T02:31:51.416Z,13.38
2023-01-09T02:34:47.140Z,14.70
2023-01-09T02:37:44.340Z,14.18
2023-01-09T02:40:53.822Z,14.70
2023-01-09T02:43:21.493Z,12.27
2023-01-09T02:45:48.317Z,13.48
2023-01-09T02:48:15.292Z,13.25
2023-01-09T02:50:47.858Z,12.35
2023-01-09T02:53:14.565Z,12.30
2023-01-09T02:55:50.521Z,14.15
2023-01-09T02:58:52.161Z,12.15
2023-01-09T03:01:56.487Z,12.18
2023-01-09T03:04:41.817Z,13.27
2023-01-09T03:07:23.003Z,14.50
2023-01-09T03:09:53.793Z,12.48
2023-01-09T03:12:24.851Z,13.48
2023-01-09T03:14:54.837Z,12.60
2023-01-09T03:17:43.747Z,13.35
2023-01-09T03:20:14.000Z,14.32
2023-01-09T03:22:53.138Z,12.55
2023-01-09T03:25:20.035Z,14.18
2023-01-09T03:27:46.955Z,12.98
2023-01-09T03:30:13.950Z,13.65
2023-01-09T03:32:40.763Z,14.27
2023-01-09T03:35:07.906Z,13.40
2023-01-09T03:37:34.691Z,12.20
2023-01-09T03:40:02.752Z,14.48
2023-01-09T03:42:29.549Z,13.50
2023-01-09T03:44:56.408Z,15.15
2023-01-09T03:47:23.289Z,14.45
2023-01-09T03:49:50.254Z,13.00
2023-01-09T03:52:17.156Z,12.90
2023-01-09T03:54:43.922Z,13.15
2023-01-09T03:57:10.754Z,11.82
2023-01-09T03:59:37.831Z,12.32
2023-01-09T04:02:04.890Z,12.57
2023-01-09T04:04:31.948Z,12.52
2023-01-09T04:06:58.755Z,12.05
2023-01-09T04:09:25.759Z,11.38
2023-01-09T04:11:52.496Z,12.35
2023-01-09T04:14:19.331Z,12.60
2023-01-09T04:16:46.267Z,12.23
2023-01-09T04:19:13.026Z,12.38
2023-01-09T04:21:39.877Z,12.63
2023-01-09T04:24:07.027Z,12.05
2023-01-09T04:26:33.858Z,12.05
2023-01-09T04:29:00.859Z,12.98
2023-01-09T04:31:27.771Z,12.43
2023-01-09T04:33:54.666Z,11.98
2023-01-09T04:36:21.499Z,11.90
2023-01-09T04:38:48.431Z,12.98
2023-01-09T04:41:35.279Z,12.77
2023-01-09T04:44:02.168Z,12.18
2023-01-09T04:46:28.936Z,12.75
2023-01-09T04:48:55.817Z,14.20
2023-01-09T04:51:22.681Z,14.50
2023-01-09T04:53:49.553Z,13.38
2023-01-09T04:56:16.398Z,13.50
2023-01-09T04:58:43.416Z,12.82
2023-01-09T05:01:10.350Z,14.50
2023-01-09T05:03:37.187Z,17.73
2023-01-09T05:06:04.490Z,16.08
2023-01-09T05:08:31.352Z,15.60
2023-01-09T05:10:58.150Z,13.75
2023-01-09T05:13:24.936Z,12.63
2023-01-09T05:15:51.796Z,15.07
2023-01-09T05:18:18.576Z,15.85
2023-01-09T05:20:45.682Z,16.52
2023-01-09T05:23:12.557Z,15.10
2023-01-09T05:25:39.558Z,13.48
2023-01-09T05:28:06.692Z,14.35
2023-01-09T05:30:33.561Z,14.93
2023-01-09T05:33:00.463Z,15.10
2023-01-09T05:35:27.334Z,14.65
2023-01-09T05:37:54.072Z,11.95
2023-01-09T05:40:29.179Z,13.10
2023-01-09T05:42:59.181Z,13.13
2023-01-09T05:45:27.413Z,13.43
2023-01-09T05:47:54.263Z,14.25
2023-01-09T05:50:21.297Z,13.60
2023-01-09T05:52:48.039Z,13.90
2023-01-09T05:55:15.295Z,13.80
2023-01-09T05:57:42.973Z,15.60
2023-01-09T06:00:25.353Z,15.27
2023-01-09T06:02:52.603Z,15.55
2023-01-09T06:05:19.439Z,14.77
2023-01-09T06:07:46.243Z,15.90
2023-01-09T06:10:15.141Z,16.88
2023-01-09T06:12:44.873Z,18.50
2023-01-09T06:15:12.079Z,18.48
2023-01-09T06:17:38.942Z,16.52
2023-01-09T06:20:06.308Z,18.17
2023-01-09T06:22:36.267Z,19.70
2023-01-09T06:25:03.590Z,19.60
2023-01-09T06:27:30.515Z,24.73
2023-01-09T06:29:57.357Z,22.05
2023-01-09T06:32:24.526Z,23.88
2023-01-09T06:34:54.292Z,26.65
2023-01-09T06:37:21.098Z,26.48
2023-01-09T06:39:48.104Z,28.38
2023-01-09T06:42:15.137Z,25.40
2023-01-09T06:44:41.857Z,26.20
2023-01-09T06:47:08.814Z,25.92
2023-01-09T06:49:35.702Z,26.50
2023-01-09T06:52:05.797Z,26.85
2023-01-09T06:54:32.853Z,26.42
2023-01-09T06:56:59.839Z,36.22
2023-01-09T06:59:26.821Z,51.35
2023-01-09T07:01:55.363Z,37.83
2023-01-09T07:04:22.727Z,34.60
2023-01-09T07:06:51.870Z,31.55
2023-01-09T07:09:19.281Z,27.27
2023-01-09T07:11:46.196Z,25.02
2023-01-09T07:14:13.028Z,28.02
2023-01-09T07:16:42.062Z,27.58
2023-01-09T07:19:10.973Z,30.20
2023-01-09T07:21:37.842Z,28.30
2023-01-09T07:24:04.963Z,28.38
2023-01-09T07:26:31.897Z,29.20
2023-01-09T07:28:58.694Z,33.50
2023-01-09T07:31:26.005Z,29.88
2023-01-09T07:33:52.815Z,30.55
2023-01-09T07:36:19.670Z,33.28
2023-01-09T07:38:46.535Z,28.75
2023-01-09T07:41:13.385Z,29.77
2023-01-09T07:43:40.304Z,34.17
2023-01-09T07:46:08.018Z,36.70
2023-01-09T07:48:34.870Z,34.65
2023-01-09T07:51:04.112Z,34.17
2023-01-09T07:53:31.160Z,36.40
2023-01-09T07:55:58.064Z,34.00
2023-01-09T07:58:24.873Z,34.63
2023-01-09T08:00:52.241Z,34.72
2023-01-09T08:03:19.377Z,38.42
2023-01-09T08:08:54.817Z,39.75
2023-01-09T08:11:24.222Z,38.97
2023-01-09T08:13:52.068Z,39.08
2023-01-09T08:16:19.177Z,35.53
2023-01-09T08:18:46.525Z,37.17
2023-01-09T08:24:15.750Z,34.20
2023-01-09T08:26:52.917Z,32.33
2023-01-09T08:29:25.842Z,34.47
2023-01-09T08:32:01.169Z,37.38
2023-01-09T08:34:34.636Z,35.00
2023-01-09T08:37:09.057Z,45.17
2023-01-09T08:39:37.266Z,38.83
2023-01-09T08:42:22.621Z,40.75
2023-01-09T08:45:08.320Z,39.90
2023-01-09T08:47:35.334Z,40.28
2023-01-09T08:50:02.708Z,41.15
2023-01-09T08:52:30.970Z,41.17
2023-01-09T08:54:57.823Z,36.95
2023-01-09T08:57:24.937Z,35.08
2023-01-09T08:59:52.165Z,31.17
2023-01-09T09:02:18.979Z,34.28
2023-01-09T09:04:49.414Z,24.15
2023-01-09T09:07:16.381Z,24.63
2023-01-09T09:09:43.083Z,24.50
2023-01-09T09:12:10.077Z,25.30
2023-01-09T09:14:55.760Z,28.52
2023-01-09T09:17:22.597Z,33.75
2023-01-09T09:19:49.398Z,31.90
2023-01-09T09:22:16.308Z,31.42
2023-01-09T09:24:43.059Z,29.33
2023-01-09T09:27:16.012Z,27.60
2023-01-09T09:29:44.988Z,26.50
2023-01-09T09:32:12.016Z,27.55
2023-01-09T09:34:38.984Z,27.27
2023-01-09T09:37:05.958Z,22.73
2023-01-09T09:39:32.949Z,19.73
2023-01-09T09:42:46.690Z,19.00
2023-01-09T09:45:28.851Z,27.15
2023-01-09T09:48:23.073Z,24.58
2023-01-09T09:51:16.583Z,16.27
2023-01-09T09:53:55.822Z,12.63
2023-01-09T09:56:24.370Z,8.32
2023-01-09T09:58:57.574Z,7.95
2023-01-09T10:01:38.249Z,7.75
2023-01-09T10:04:11.364Z,7.45
2023-01-09T10:06:43.491Z,8.20
2023-01-09T10:09:32.247Z,7.95
2023-01-09T10:12:17.481Z,7.65
2023-01-09T10:14:45.189Z,8.23
2023-01-09T10:17:33.148Z,8.20
2023-01-09T10:20:25.172Z,7.28
2023-01-09T10:22:58.527Z,6.40
2023-01-09T10:25:34.835Z,6.10
2023-01-09T10:28:22.509Z,5.68
2023-01-09T10:30:53.660Z,6.10
2023-01-09T10:33:39.394Z,6.70
2023-01-09T10:36:28.746Z,8.07
2023-01-09T10:38:58.457Z,8.30
2023-01-09T10:41:36.004Z,8.82
2023-01-09T10:44:18.270Z,8.02
2023-01-09T10:46:55.852Z,7.32
2023-01-09T10:49:24.338Z,8.90
2023-01-09T10:51:57.677Z,8.38
2023-01-09T10:54:24.968Z,8.40
2023-01-09T10:56:55.381Z,6.72
2023-01-09T10:59:23.657Z,6.20
2023-01-09T11:01:50.969Z,6.47
2023-01-09T11:04:28.334Z,5.32
2023-01-09T11:07:07.488Z,5.60
2023-01-09T11:09:57.337Z,8.18
2023-01-09T11:12:26.495Z,6.07
2023-01-09T11:14:53.686Z,7.00
2023-01-09T11:17:27.437Z,6.18
2023-01-09T11:20:07.332Z,6.03
2023-01-09T11:22:55.346Z,6.28
2023-01-09T11:25:24.785Z,5.43
2023-01-09T11:28:17.272Z,5.18
2023-01-09T11:30:55.118Z,5.72
2023-01-09T11:33:27.943Z,5.20
2023-01-09T11:36:03.584Z,5.13
2023-01-09T11:38:39.408Z,5.47
2023-01-09T11:41:06.875Z,5.35
2023-01-09T11:43:38.331Z,5.18
2023-01-09T11:46:11.685Z,4.90
2023-01-09T11:48:58.993Z,5.53
2023-01-09T11:51:34.925Z,5.03
2023-01-09T11:54:24.398Z,5.45
2023-01-09T11:56:52.317Z,6.32
2023-01-09T11:59:22.192Z,6.22
2023-01-09T12:02:01.196Z,6.60
2023-01-09T12:04:56.078Z,7.20
2023-01-09T12:07:54.115Z,6.20
2023-01-09T12:10:39.652Z,5.78
2023-01-09T12:13:24.433Z,6.40
2023-01-09T12:16:10.032Z,6.20
2023-01-09T12:19:14.179Z,6.47
2023-01-09T12:22:03.077Z,6.05
2023-01-09T12:24:53.402Z,6.45
2023-01-09T12:27:26.948Z,7.38
2023-01-09T12:30:26.772Z,7.07
2023-01-09T12:33:23.154Z,7.15
2023-01-09T12:39:28.366Z,7.25
2023-01-09T12:42:07.255Z,8.30
2023-01-09T12:44:46.132Z,8.90
2023-01-09T12:47:31.731Z,7.47
2023-01-09T12:50:17.258Z,7.50
2023-01-09T12:53:07.100Z,7.45
2023-01-09T12:55:37.847Z,8.15
2023-01-09T12:58:17.458Z,8.23
2023-01-09T13:00:49.420Z,8.32
2023-01-09T13:03:41.955Z,8.02
2023-01-09T13:06:14.756Z,8.30
2023-01-09T13:08:51.767Z,7.95
2023-01-09T13:11:31.715Z,9.00
2023-01-09T13:14:32.860Z,8.30
2023-01-09T13:17:03.368Z,8.82
2023-01-09T13:19:38.213Z,8.82
2023-01-09T13:22:06.776Z,9.80
2023-01-09T13:24:39.793Z,9.55
2023-01-09T13:27:11.190Z,7.72
2023-01-09T13:29:44.289Z,7.10
2023-01-09T13:32:23.405Z,8.10
2023-01-09T13:34:57.578Z,6.43
2023-01-09T13:37:30.752Z,7.13
2023-01-09T13:40:03.812Z,6.90
2023-01-09T13:42:39.141Z,8.43
2023-01-09T13:45:18.299Z,7.95
2023-01-09T13:47:45.615Z,7.60
2023-01-09T13:50:24.367Z,8.40
2023-01-09T13:52:51.586Z,8.68
2023-01-09T13:55:18.265Z,9.20
2023-01-09T13:58:06.326Z,8.35
2023-01-09T14:00:36.267Z,9.35
2023-01-09T14:03:26.168Z,8.00
2023-01-09T14:05:52.982Z,8.02
2023-01-09T14:08:22.510Z,8.13
2023-01-09T14:10:52.764Z,8.63
2023-01-09T14:13:31.865Z,8.02
2023-01-09T14:16:23.584Z,8.07
2023-01-09T14:19:17.885Z,9.15
2023-01-09T14:21:57.632Z,9.40
2023-01-09T14:24:32.486Z,10.70
2023-01-09T14:27:03.772Z,10.82
2023-01-09T14:29:36.796Z,10.68
2023-01-09T14:32:30.243Z,11.40
2023-01-09T14:35:08.376Z,9.48
2023-01-09T14:37:40.939Z,11.65
2023-01-09T14:40:16.041Z,11.07
2023-01-09T14:42:46.406Z,10.60
2023-01-09T14:45:21.837Z,11.23
2023-01-09T14:47:59.549Z,10.25
2023-01-09T14:50:56.256Z,9.38
2023-01-09T14:53:42.967Z,12.18
2023-01-09T14:56:30.304Z,12.25
2023-01-09T14:59:12.095Z,12.85
2023-01-09T15:01:42.761Z,10.63
2023-01-09T15:04:38.996Z,9.60
2023-01-09T15:07:09.552Z,9.68
2023-01-09T15:09:47.123Z,10.65
2023-01-09T15:12:20.846Z,10.07
2023-01-09T15:14:56.382Z,10.00
2023-01-09T15:17:27.507Z,10.70
2023-01-09T15:19:58.950Z,10.82
2023-01-09T15:22:31.401Z,9.75
2023-01-09T15:24:59.410Z,9.98
2023-01-09T15:27:26.533Z,9.35
2023-01-09T15:29:53.986Z,9.65
2023-01-09T15:32:28.321Z,9.85
2023-01-09T15:34:56.920Z,11.23
2023-01-09T15:37:35.218Z,11.95
2023-01-09T15:40:05.782Z,11.20
2023-01-09T15:42:56.298Z,11.15
2023-01-09T15:45:59.505Z,11.27
2023-01-09T15:48:37.160Z,9.95
2023-01-09T15:51:15.310Z,9.32
2023-01-09T15:53:44.784Z,10.98
2023-01-09T15:56:20.417Z,11.18
2023-01-09T15:58:51.546Z,13.02
2023-01-09T16:01:40.948Z,11.68
2023-01-09T16:04:16.631Z,12.15
2023-01-09T16:06:48.179Z,13.02
2023-01-09T16:09:23.768Z,15.27
2023-01-09T16:11:54.200Z,12.63
2023-01-09T16:14:45.774Z,11.57
2023-01-09T16:17:16.890Z,12.70
2023-01-09T16:19:51.203Z,10.80
2023-01-09T16:22:33.443Z,13.10
2023-01-09T16:25:03.110Z,11.35
2023-01-09T16:27:33.581Z,11.23
2023-01-09T16:30:09.115Z,10.20
2023-01-09T16:32:46.606Z,11.52
2023-01-09T16:35:18.878Z,11.45
2023-01-09T16:37:45.853Z,13.45
2023-01-09T16:40:18.665Z,12.20
2023-01-09T16:43:01.327Z,11.70
2023-01-09T16:45:30.009Z,11.68
2023-01-09T16:47:58.271Z,9.98
2023-01-09T16:50:28.078Z,12.18
2023-01-09T16:52:56.753Z,12.05
2023-01-09T16:55:26.213Z,11.68
2023-01-09T16:57:53.381Z,11.88
2023-01-09T17:00:21.844Z,11.48
2023-01-09T17:02:48.666Z,13.82
2023-01-09T17:05:15.572Z,15.30
2023-01-09T17:07:42.697Z,14.20
2023-01-09T17:10:20.058Z,13.73
2023-01-09T17:12:47.204Z,16.10
2023-01-09T17:15:17.973Z,14.13
2023-01-09T17:17:44.997Z,13.20
2023-01-09T17:20:18.749Z,12.07
2023-01-09T17:22:45.618Z,13.55
2023-01-09T17:25:34.894Z,13.88
2023-01-09T17:28:22.210Z,11.93
2023-01-09T17:30:49.190Z,11.85
2023-01-09T17:33:17.976Z,10.77
2023-01-09T17:35:44.905Z,10.48
2023-01-09T17:38:19.048Z,9.40
2023-01-09T17:40:46.242Z,10.98
2023-01-09T17:43:22.714Z,11.00
2023-01-09T17:45:56.759Z,10.90
2023-01-09T17:48:24.308Z,12.35
2023-01-09T17:50:54.331Z,13.45
2023-01-09T17:53:25.883Z,13.15
2023-01-09T17:55:56.628Z,13.75
2023-01-09T17:58:36.081Z,14.05
2023-01-09T18:01:05.621Z,15.02
2023-01-09T18:03:34.606Z,15.23
2023-01-09T18:06:07.906Z,15.95
2023-01-09T18:08:34.819Z,14.48
2023-01-09T18:11:06.148Z,14.93
2023-01-09T18:13:37.322Z,16.88
2023-01-09T18:16:05.062Z,16.10
2023-01-09T18:18:34.679Z,17.63
2023-01-09T18:21:04.977Z,18.95
2023-01-09T18:23:31.984Z,16.33
2023-01-09T18:26:09.881Z,16.95
2023-01-09T18:28:40.649Z,17.00
2023-01-09T18:31:07.724Z,16.35
2023-01-09T18:33:34.913Z,17.10
2023-01-09T18:36:11.781Z,17.10
2023-01-09T18:38:38.893Z,17.35
2023-01-09T18:41:06.261Z,15.20
2023-01-09T18:43:33.279Z,15.20
2023-01-09T18:46:05.371Z,16.13
2023-01-09T18:48:52.125Z,15.32
2023-01-09T18:51:19.954Z,13.80
2023-01-09T18:53:53.991Z,14.38
2023-01-09T18:56:45.824Z,14.23
2023-01-09T18:59:12.866Z,14.75
2023-01-09T19:01:44.728Z,15.30
2023-01-09T19:04:22.417Z,15.00
2023-01-09T19:06:53.461Z,15.10
2023-01-09T19:09:22.765Z,15.80
2023-01-09T19:11:49.916Z,15.73
2023-01-09T19:14:17.029Z,14.50
2023-01-09T19:16:44.057Z,15.07
2023-01-09T19:19:16.499Z,13.45
2023-01-09T19:21:49.463Z,15.27
2023-01-09T19:24:21.044Z,14.43
2023-01-09T19:26:48.372Z,15.35
2023-01-09T19:29:18.465Z,13.93
2023-01-09T19:31:48.846Z,13.60
2023-01-09T19:34:18.982Z,14.02
2023-01-09T19:36:47.731Z,12.43
2023-01-09T19:39:15.303Z,13.27
2023-01-09T19:41:43.027Z,14.32
2023-01-09T19:44:11.255Z,14.90
2023-01-09T19:46:38.357Z,16.58
2023-01-09T19:49:06.321Z,15.32
2023-01-09T19:51:33.648Z,15.00
2023-01-09T19:54:03.233Z,15.18
2023-01-09T19:56:32.267Z,16.70
2023-01-09T19:59:01.966Z,14.98
2023-01-09T20:01:37.561Z,15.60
2023-01-09T20:04:10.210Z,14.57
2023-01-09T20:06:41.812Z,15.02
2023-01-09T20:09:11.223Z,14.77
2023-01-09T20:11:41.110Z,15.70
2023-01-09T20:14:12.930Z,16.70
2023-01-09T20:16:39.825Z,15.45
2023-01-09T20:19:08.752Z,15.68
2023-01-09T20:21:36.433Z,16.55
2023-01-09T20:24:05.781Z,17.35
2023-01-09T20:26:34.545Z,16.42
2023-01-09T20:29:02.004Z,16.48
2023-01-09T20:31:31.425Z,15.00
2023-01-09T20:34:00.008Z,15.38
2023-01-09T20:36:30.288Z,16.13
2023-01-09T20:38:59.353Z,15.23
2023-01-09T20:41:26.886Z,17.15
2023-01-09T20:43:56.267Z,17.40
2023-01-09T20:46:27.771Z,15.50
2023-01-09T20:48:59.753Z,16.13
2023-01-09T20:51:26.864Z,16.02
2023-01-09T20:53:59.844Z,15.90
2023-01-09T20:56:28.666Z,15.70
2023-01-09T20:59:11.869Z,13.93
2023-01-09T21:01:43.174Z,14.40
2023-01-09T21:04:18.216Z,14.13
2023-01-09T21:06:54.961Z,14.98
2023-01-09T21:12:40.895Z,14.75
2023-01-09T21:15:16.379Z,14.77
2023-01-09T21:17:45.922Z,14.00
2023-01-09T21:20:16.110Z,13.20
2023-01-09T21:22:45.521Z,12.85
2023-01-09T21:27:51.666Z,11.88
2023-01-09T21:33:38.217Z,11.25
2023-01-09T21:36:35.695Z,12.23
2023-01-09T21:39:33.861Z,10.23
2023-01-09T21:49:15.805Z,10.40
2023-01-09T21:53:20.210Z,9.55
2023-01-09T21:55:08.972Z,10.27
2023-01-09T22:00:49.994Z,9.45
2023-01-09T22:03:19.105Z,9.38
2023-01-09T22:05:51.411Z,9.27
2023-01-09T22:08:28.276Z,7.90
2023-01-09T22:16:27.798Z,7.72
2023-01-09T23:18:00.765Z,4.70
2023-01-09T23:20:31.973Z,3.88
2023-01-09T23:28:39.263Z,4.22
2023-01-09T23:34:25.956Z,3.92
2023-01-09T23:36:59.655Z,4.85
2023-01-09T23:46:47.768Z,4.28
2023-01-09T23:59:30.755Z,4.57
